createdAt,value
2018-06-11T00:00:34.824Z,4.00
2018-06-11T00:01:34.850Z,4.00
2018-06-11T00:02:34.924Z,4.00
2018-06-11T00:03:34.893Z,4.00
2018-06-11T00:04:34.913Z,4.00
2018-06-11T00:05:34.937Z,4.00
2018-06-11T00:06:34.959Z,4.00
2018-06-11T00:07:34.985Z,4.00
2018-06-11T00:08:35.002Z,4.00
2018-06-11T00:09:35.028Z,4.00
2018-06-11T00:10:35.046Z,4.00
2018-06-11T00:11:35.072Z,4.00
2018-06-11T00:12:35.092Z,4.00
2018-06-11T00:13:35.115Z,4.00
2018-06-11T00:14:35.136Z,4.00
2018-06-11T00:15:35.159Z,4.00
2018-06-11T00:16:35.181Z,4.00
2018-06-11T00:17:35.203Z,4.00
2018-06-11T00:18:35.224Z,4.00
2018-06-11T00:19:35.250Z,4.00
2018-06-11T00:20:35.267Z,4.00
2018-06-11T00:21:35.290Z,4.00
2018-06-11T00:22:35.315Z,4.00
2018-06-11T00:23:35.338Z,4.00
2018-06-11T00:24:35.358Z,4.00
2018-06-11T00:25:35.378Z,4.00
2018-06-11T00:26:35.404Z,4.00
2018-06-11T00:27:35.423Z,4.00
2018-06-11T00:28:35.444Z,4.00
2018-06-11T00:29:35.470Z,4.00
2018-06-11T00:30:35.491Z,4.00
2018-06-11T00:31:35.515Z,4.00
2018-06-11T00:32:35.535Z,4.00
2018-06-11T00:33:35.558Z,4.00
2018-06-11T00:34:35.579Z,4.00
2018-06-11T00:35:35.600Z,4.00
2018-06-11T00:36:35.624Z,4.00
2018-06-11T00:37:35.747Z,4.00
2018-06-11T00:38:35.665Z,4.00
2018-06-11T00:39:35.692Z,4.00
2018-06-11T00:40:35.712Z,4.00
2018-06-11T00:41:35.731Z,4.00
2018-06-11T00:42:35.756Z,4.00
2018-06-11T00:43:35.779Z,4.00
2018-06-11T00:44:35.797Z,4.00
2018-06-11T00:45:35.823Z,4.00
2018-06-11T00:46:35.844Z,4.00
2018-06-11T00:47:35.867Z,4.00
2018-06-11T00:48:35.888Z,4.00
2018-06-11T00:49:35.911Z,4.00
2018-06-11T00:50:35.938Z,4.00
2018-06-11T00:51:35.954Z,4.00
2018-06-11T00:52:35.975Z,4.00
2018-06-11T00:53:35.997Z,4.00
2018-06-11T00:54:36.020Z,4.00
2018-06-11T00:55:36.040Z,4.00
2018-06-11T00:56:36.066Z,4.00
2018-06-11T00:57:36.086Z,4.00
2018-06-11T00:58:36.108Z,4.00
2018-06-11T00:59:36.130Z,4.00
2018-06-11T01:00:36.153Z,4.00
2018-06-11T01:01:36.175Z,4.00
2018-06-11T01:02:36.195Z,4.00
2018-06-11T01:03:36.217Z,4.00
2018-06-11T01:04:36.237Z,4.00
2018-06-11T01:05:36.260Z,4.00
2018-06-11T01:06:36.280Z,4.00
2018-06-11T01:07:36.306Z,4.00
2018-06-11T01:08:36.328Z,4.00
2018-06-11T01:09:36.348Z,4.00
2018-06-11T01:10:36.371Z,4.00
2018-06-11T01:11:36.390Z,4.00
2018-06-11T01:12:36.418Z,4.00
2018-06-11T01:13:36.434Z,4.00
2018-06-11T01:14:36.460Z,4.00
2018-06-11T01:15:36.479Z,4.00
2018-06-11T01:16:36.503Z,4.00
2018-06-11T01:17:36.525Z,4.00
2018-06-11T01:18:36.544Z,4.00
2018-06-11T01:19:36.567Z,4.00
2018-06-11T01:20:36.594Z,4.00
2018-06-11T01:21:36.615Z,4.00
2018-06-11T01:22:36.631Z,4.00
2018-06-11T01:23:36.654Z,4.00
2018-06-11T01:24:36.678Z,4.00
2018-06-11T01:25:36.700Z,4.00
2018-06-11T01:26:36.719Z,4.00
2018-06-11T01:27:36.744Z,4.00
2018-06-11T01:28:36.765Z,4.00
2018-06-11T01:29:36.787Z,4.00
2018-06-11T01:30:36.806Z,4.00
2018-06-11T01:31:36.832Z,4.00
2018-06-11T01:32:36.853Z,4.00
2018-06-11T01:33:36.874Z,4.00
2018-06-11T01:34:36.894Z,4.00
2018-06-11T01:35:36.917Z,4.00
2018-06-11T01:36:36.938Z,4.00
2018-06-11T01:37:36.961Z,4.00
2018-06-11T01:38:36.985Z,4.00
2018-06-11T01:39:37.009Z,4.00
2018-06-11T01:40:37.028Z,4.00
2018-06-11T01:41:37.047Z,4.00
2018-06-11T01:42:37.069Z,4.00
2018-06-11T01:43:37.094Z,4.00
2018-06-11T01:44:37.115Z,4.00
2018-06-11T01:45:37.134Z,4.00
2018-06-11T01:46:37.159Z,4.00
2018-06-11T01:47:37.178Z,4.00
2018-06-11T01:48:37.202Z,4.00
2018-06-11T01:49:37.225Z,4.00
2018-06-11T01:50:37.243Z,4.00
2018-06-11T01:51:37.269Z,4.00
2018-06-11T01:52:37.289Z,4.00
2018-06-11T01:53:37.312Z,4.00
2018-06-11T01:54:37.331Z,4.00
2018-06-11T01:55:37.355Z,4.00
2018-06-11T01:56:37.377Z,4.00
2018-06-11T01:57:37.399Z,4.00
2018-06-11T01:58:37.418Z,4.00
2018-06-11T01:59:37.441Z,4.00
2018-06-11T02:00:37.460Z,4.00
2018-06-11T02:01:37.485Z,4.00
2018-06-11T02:02:37.508Z,4.00
2018-06-11T02:03:37.527Z,4.00
2018-06-11T02:04:37.548Z,4.00
2018-06-11T02:05:37.577Z,4.00
2018-06-11T02:06:37.592Z,4.00
2018-06-11T02:07:37.616Z,4.00
2018-06-11T02:08:37.638Z,4.00
2018-06-11T02:09:37.657Z,4.00
2018-06-11T02:10:37.682Z,4.00
2018-06-11T02:11:37.701Z,4.00
2018-06-11T02:12:37.724Z,4.00
2018-06-11T02:13:37.744Z,4.00
2018-06-11T02:14:37.771Z,4.00
2018-06-11T02:15:37.788Z,4.00
2018-06-11T02:16:37.811Z,4.00
2018-06-11T02:17:37.837Z,4.00
2018-06-11T02:18:37.853Z,4.00
2018-06-11T02:19:37.878Z,4.00
2018-06-11T02:20:37.897Z,8.00
2018-06-11T02:21:37.921Z,8.00
2018-06-11T02:22:37.941Z,8.00
2018-06-11T02:23:37.965Z,8.00
2018-06-11T02:24:37.983Z,8.00
2018-06-11T02:25:38.007Z,8.00
2018-06-11T02:26:38.027Z,8.00
2018-06-11T02:27:38.049Z,4.00
2018-06-11T02:28:38.069Z,4.00
2018-06-11T02:29:38.092Z,4.00
2018-06-11T02:30:38.114Z,4.00
2018-06-11T02:31:38.138Z,4.00
2018-06-11T02:32:38.157Z,8.00
2018-06-11T02:33:38.178Z,8.00
2018-06-11T02:34:38.202Z,4.00
2018-06-11T02:35:38.228Z,8.00
2018-06-11T02:36:38.247Z,8.00
2018-06-11T02:37:38.269Z,8.00
2018-06-11T02:38:38.354Z,8.00
2018-06-11T02:39:38.310Z,8.00
2018-06-11T02:40:38.333Z,12.00
2018-06-11T02:41:38.355Z,12.00
2018-06-11T02:42:38.377Z,12.00
2018-06-11T02:43:38.399Z,16.00
2018-06-11T02:44:38.419Z,16.00
2018-06-11T02:45:38.441Z,16.00
2018-06-11T02:46:38.465Z,20.00
2018-06-11T02:47:38.486Z,16.00
2018-06-11T02:48:38.505Z,16.00
2018-06-11T02:49:38.530Z,16.00
2018-06-11T02:50:38.553Z,20.00
2018-06-11T02:51:38.571Z,20.00
2018-06-11T02:52:38.594Z,24.00
2018-06-11T02:53:38.613Z,24.00
2018-06-11T02:54:38.638Z,28.00
2018-06-11T02:55:38.659Z,32.00
2018-06-11T02:56:38.680Z,36.00
2018-06-11T02:57:38.704Z,40.00
2018-06-11T02:58:38.722Z,44.00
2018-06-11T02:59:38.745Z,48.00
2018-06-11T03:00:38.769Z,52.00
2018-06-11T03:01:38.787Z,56.00
2018-06-11T03:02:38.812Z,56.00
2018-06-11T03:03:38.833Z,64.00
2018-06-11T03:04:38.855Z,68.00
2018-06-11T03:05:38.875Z,72.00
2018-06-11T03:06:38.899Z,80.00
2018-06-11T03:07:38.924Z,88.00
2018-06-11T03:08:38.947Z,88.00
2018-06-11T03:09:38.966Z,92.00
2018-06-11T03:10:38.989Z,92.00
2018-06-11T03:11:39.008Z,100.00
2018-06-11T03:12:39.027Z,104.00
2018-06-11T03:13:39.050Z,108.00
2018-06-11T03:14:39.071Z,120.00
2018-06-11T03:15:39.193Z,128.00
2018-06-11T03:16:39.114Z,136.00
2018-06-11T03:17:39.137Z,148.00
2018-06-11T03:18:39.162Z,160.00
2018-06-11T03:19:39.180Z,160.00
2018-06-11T03:20:39.205Z,164.00
2018-06-11T03:21:39.227Z,160.00
2018-06-11T03:22:39.250Z,156.00
2018-06-11T03:23:39.304Z,160.00
2018-06-11T03:24:39.292Z,168.00
2018-06-11T03:25:39.315Z,180.00
2018-06-11T03:26:39.336Z,192.00
2018-06-11T03:27:39.356Z,204.00
2018-06-11T03:28:39.377Z,212.00
2018-06-11T03:29:39.401Z,220.00
2018-06-11T03:30:39.424Z,232.00
2018-06-11T03:31:39.444Z,248.00
2018-06-11T03:32:39.465Z,260.00
2018-06-11T03:33:39.490Z,272.00
2018-06-11T03:34:39.510Z,284.00
2018-06-11T03:35:39.536Z,296.00
2018-06-11T03:36:39.555Z,308.00
2018-06-11T03:37:39.574Z,312.00
2018-06-11T03:38:39.600Z,320.00
2018-06-11T03:39:39.624Z,336.00
2018-06-11T03:40:39.640Z,360.00
2018-06-11T03:41:39.665Z,388.00
2018-06-11T03:42:39.687Z,408.00
2018-06-11T03:43:39.710Z,428.00
2018-06-11T03:44:39.731Z,424.00
2018-06-11T03:45:39.754Z,420.00
2018-06-11T03:46:39.773Z,424.00
2018-06-11T03:47:39.797Z,428.00
2018-06-11T03:48:39.826Z,424.00
2018-06-11T03:49:39.839Z,416.00
2018-06-11T03:50:39.863Z,416.00
2018-06-11T03:51:39.887Z,420.00
2018-06-11T03:52:39.908Z,428.00
2018-06-11T03:53:39.930Z,444.00
2018-06-11T03:54:39.952Z,460.00
2018-06-11T03:55:39.971Z,480.00
2018-06-11T03:56:39.992Z,492.00
2018-06-11T03:57:40.018Z,492.00
2018-06-11T03:58:40.037Z,496.00
2018-06-11T03:59:40.062Z,504.00
2018-06-11T04:00:40.097Z,520.00
2018-06-11T04:01:40.105Z,540.00
2018-06-11T04:02:40.124Z,564.00
2018-06-11T04:03:40.147Z,584.00
2018-06-11T04:04:40.171Z,608.00
2018-06-11T04:05:40.190Z,640.00
2018-06-11T04:06:40.215Z,660.00
2018-06-11T04:07:40.240Z,672.00
2018-06-11T04:08:40.257Z,696.00
2018-06-11T04:09:40.277Z,732.00
2018-06-11T04:10:40.359Z,772.00
2018-06-11T04:11:40.325Z,816.00
2018-06-11T04:12:40.343Z,856.00
2018-06-11T04:13:40.367Z,896.00
2018-06-11T04:14:40.388Z,940.00
2018-06-11T04:15:40.413Z,988.00
2018-06-11T04:16:40.431Z,1040.00
2018-06-11T04:17:40.460Z,1080.00
2018-06-11T04:18:40.478Z,1112.00
2018-06-11T04:19:40.497Z,1148.00
2018-06-11T04:20:40.521Z,1188.00
2018-06-11T04:21:40.539Z,1224.00
2018-06-11T04:22:40.563Z,1244.00
2018-06-11T04:23:40.586Z,1248.00
2018-06-11T04:24:40.607Z,1248.00
2018-06-11T04:25:40.634Z,1264.00
2018-06-11T04:26:40.654Z,1284.00
2018-06-11T04:27:40.672Z,1304.00
2018-06-11T04:28:40.692Z,1296.00
2018-06-11T04:29:40.714Z,1272.00
2018-06-11T04:30:40.794Z,1248.00
2018-06-11T04:31:40.759Z,1236.00
2018-06-11T04:32:40.788Z,1244.00
2018-06-11T04:33:40.802Z,1252.00
2018-06-11T04:34:40.825Z,1260.00
2018-06-11T04:35:40.845Z,1264.00
2018-06-11T04:36:40.869Z,1280.00
2018-06-11T04:37:40.888Z,1304.00
2018-06-11T04:38:40.913Z,1328.00
2018-06-11T04:39:40.984Z,1316.00
2018-06-11T04:40:40.953Z,1268.00
2018-06-11T04:41:40.977Z,1212.00
2018-06-11T04:42:40.997Z,1192.00
2018-06-11T04:43:41.019Z,1188.00
2018-06-11T04:44:41.044Z,1164.00
2018-06-11T04:45:41.064Z,1136.00
2018-06-11T04:46:41.088Z,1124.00
2018-06-11T04:47:41.106Z,1132.00
2018-06-11T04:48:41.129Z,1144.00
2018-06-11T04:49:41.149Z,1148.00
2018-06-11T04:50:41.173Z,1144.00
2018-06-11T04:51:41.193Z,1136.00
2018-06-11T04:52:41.216Z,1124.00
2018-06-11T04:53:41.236Z,1096.00
2018-06-11T04:54:41.262Z,1080.00
2018-06-11T04:55:41.284Z,1064.00
2018-06-11T04:56:41.301Z,1048.00
2018-06-11T04:57:41.324Z,1052.00
2018-06-11T04:58:41.350Z,1104.00
2018-06-11T04:59:41.370Z,1272.00
2018-06-11T05:00:41.390Z,1528.00
2018-06-11T05:01:41.418Z,1748.00
2018-06-11T05:02:41.438Z,2020.00
2018-06-11T05:03:41.457Z,2096.00
2018-06-11T05:04:41.479Z,2092.00
2018-06-11T05:05:41.500Z,2040.00
2018-06-11T05:06:41.522Z,2132.00
2018-06-11T05:07:41.542Z,2136.00
2018-06-11T05:08:41.565Z,2096.00
2018-06-11T05:09:41.587Z,2120.00
2018-06-11T05:10:41.612Z,1984.00
2018-06-11T05:11:41.631Z,1680.00
2018-06-11T05:12:41.653Z,1740.00
2018-06-11T05:13:41.674Z,2320.00
2018-06-11T05:14:41.697Z,2412.00
2018-06-11T05:15:41.719Z,2476.00
2018-06-11T05:16:41.744Z,2488.00
2018-06-11T05:17:41.760Z,2524.00
2018-06-11T05:18:41.782Z,2584.00
2018-06-11T05:19:41.807Z,2628.00
2018-06-11T05:20:41.824Z,2616.00
2018-06-11T05:21:41.847Z,2636.00
2018-06-11T05:22:41.869Z,2664.00
2018-06-11T05:23:41.893Z,2684.00
2018-06-11T05:24:41.914Z,2676.00
2018-06-11T05:25:41.939Z,2696.00
2018-06-11T05:26:41.957Z,2700.00
2018-06-11T05:27:41.982Z,2728.00
2018-06-11T05:28:42.029Z,2712.00
2018-06-11T05:29:42.022Z,2756.00
2018-06-11T05:30:42.043Z,2844.00
2018-06-11T05:31:42.072Z,2944.00
2018-06-11T05:32:42.086Z,3000.00
2018-06-11T05:33:42.108Z,3020.00
2018-06-11T05:34:42.198Z,3032.00
2018-06-11T05:35:42.155Z,3076.00
2018-06-11T05:36:42.177Z,3112.00
2018-06-11T05:37:42.204Z,3120.00
2018-06-11T05:38:42.220Z,3140.00
2018-06-11T05:39:42.247Z,3216.00
2018-06-11T05:40:42.262Z,3264.00
2018-06-11T05:41:42.285Z,3292.00
2018-06-11T05:42:42.309Z,3104.00
2018-06-11T05:43:42.328Z,2920.00
2018-06-11T05:44:42.352Z,3428.00
2018-06-11T05:45:42.374Z,3544.00
2018-06-11T05:46:42.397Z,3516.00
2018-06-11T05:47:42.417Z,3512.00
2018-06-11T05:48:42.438Z,3404.00
2018-06-11T05:49:42.460Z,3276.00
2018-06-11T05:50:42.485Z,3228.00
2018-06-11T05:51:42.508Z,3200.00
2018-06-11T05:52:42.531Z,3220.00
2018-06-11T05:53:42.551Z,3272.00
2018-06-11T05:54:42.576Z,3324.00
2018-06-11T05:55:42.596Z,3424.00
2018-06-11T05:56:42.615Z,3540.00
2018-06-11T05:57:42.639Z,3644.00
2018-06-11T05:58:42.662Z,3704.00
2018-06-11T05:59:42.684Z,3788.00
2018-06-11T06:00:42.705Z,3812.00
2018-06-11T06:01:42.732Z,3836.00
2018-06-11T06:02:42.750Z,3860.00
2018-06-11T06:03:42.773Z,3752.00
2018-06-11T06:04:42.791Z,3420.00
2018-06-11T06:05:42.814Z,3416.00
2018-06-11T06:06:42.841Z,3356.00
2018-06-11T06:07:42.860Z,2956.00
2018-06-11T06:08:42.889Z,2408.00
2018-06-11T06:09:42.906Z,2340.00
2018-06-11T06:10:42.929Z,2956.00
2018-06-11T06:11:42.948Z,3884.00
2018-06-11T06:12:42.970Z,4296.00
2018-06-11T06:13:42.995Z,4428.00
2018-06-11T06:14:43.015Z,4484.00
2018-06-11T06:15:43.037Z,4536.00
2018-06-11T06:16:43.063Z,4648.00
2018-06-11T06:17:43.082Z,4740.00
2018-06-11T06:18:43.106Z,4896.00
2018-06-11T06:19:43.127Z,5044.00
2018-06-11T06:20:43.152Z,5144.00
2018-06-11T06:21:43.171Z,5076.00
2018-06-11T06:22:43.197Z,4652.00
2018-06-11T06:23:43.219Z,4136.00
2018-06-11T06:24:43.238Z,3560.00
2018-06-11T06:25:43.263Z,3372.00
2018-06-11T06:26:43.336Z,3724.00
2018-06-11T06:27:43.309Z,4428.00
2018-06-11T06:28:43.330Z,4704.00
2018-06-11T06:29:43.354Z,4640.00
2018-06-11T06:30:43.373Z,4724.00
2018-06-11T06:31:43.397Z,5164.00
2018-06-11T06:32:43.418Z,5256.00
2018-06-11T06:33:43.445Z,5064.00
2018-06-11T06:34:43.581Z,5100.00
2018-06-11T06:35:43.487Z,5256.00
2018-06-11T06:36:43.512Z,5512.00
2018-06-11T06:37:43.533Z,5636.00
2018-06-11T06:38:43.558Z,5588.00
2018-06-11T06:39:43.584Z,5316.00
2018-06-11T06:40:43.599Z,4868.00
2018-06-11T06:41:43.624Z,4748.00
2018-06-11T06:42:43.648Z,4816.00
2018-06-11T06:43:43.682Z,5180.00
2018-06-11T06:44:43.692Z,5532.00
2018-06-11T06:45:43.719Z,5640.00
2018-06-11T06:46:43.737Z,5572.00
2018-06-11T06:47:43.762Z,5524.00
2018-06-11T06:48:43.834Z,5420.00
2018-06-11T06:49:43.808Z,5348.00
2018-06-11T06:50:43.829Z,5496.00
2018-06-11T06:51:43.854Z,5508.00
2018-06-11T06:52:43.911Z,5428.00
2018-06-11T06:53:43.944Z,5392.00
2018-06-11T06:54:43.918Z,5240.00
2018-06-11T06:55:43.945Z,4460.00
2018-06-11T06:56:43.965Z,3776.00
2018-06-11T06:57:43.989Z,3884.00
2018-06-11T06:58:44.010Z,4656.00
2018-06-11T06:59:44.036Z,5380.00
2018-06-11T07:00:44.057Z,5840.00
2018-06-11T07:01:44.083Z,6020.00
2018-06-11T07:02:44.105Z,6080.00
2018-06-11T07:03:44.125Z,6036.00
2018-06-11T07:04:44.150Z,5892.00
2018-06-11T07:05:44.171Z,6104.00
2018-06-11T07:06:44.193Z,6156.00
2018-06-11T07:07:44.219Z,5800.00
2018-06-11T07:08:44.238Z,5320.00
2018-06-11T07:09:44.261Z,4860.00
2018-06-11T07:10:44.287Z,4584.00
2018-06-11T07:11:44.315Z,4640.00
2018-06-11T07:12:44.333Z,4868.00
2018-06-11T07:13:44.385Z,4956.00
2018-06-11T07:14:44.933Z,4900.00
2018-06-11T07:15:44.401Z,5164.00
2018-06-11T07:16:44.677Z,5192.00
2018-06-11T07:17:44.449Z,5232.00
2018-06-11T07:18:44.469Z,5312.00
2018-06-11T07:19:44.497Z,5240.00
2018-06-11T07:20:44.518Z,4800.00
2018-06-11T07:21:44.540Z,4292.00
2018-06-11T07:22:44.565Z,4240.00
2018-06-11T07:23:44.588Z,4596.00
2018-06-11T07:24:44.608Z,5680.00
2018-06-11T07:25:44.631Z,6480.00
2018-06-11T07:26:45.106Z,6668.00
2018-06-11T07:27:44.677Z,6596.00
2018-06-11T07:28:44.700Z,6028.00
2018-06-11T07:29:45.473Z,5504.00
2018-06-11T07:30:44.745Z,5092.00
2018-06-11T07:31:44.772Z,5140.00
2018-06-11T07:32:44.794Z,4936.00
2018-06-11T07:33:44.817Z,4104.00
2018-06-11T07:34:44.840Z,4136.00
2018-06-11T07:35:44.862Z,4256.00
2018-06-11T07:36:44.886Z,4764.00
2018-06-11T07:37:44.909Z,5320.00
2018-06-11T07:38:44.933Z,5572.00
2018-06-11T07:39:44.957Z,5540.00
2018-06-11T07:40:44.982Z,6160.00
2018-06-11T07:41:45.001Z,8820.00
2018-06-11T07:42:45.025Z,8708.00
2018-06-11T07:43:45.050Z,8248.00
2018-06-11T07:44:45.071Z,7624.00
2018-06-11T07:45:45.095Z,8588.00
2018-06-11T07:46:45.116Z,8876.00
2018-06-11T07:47:45.143Z,9780.00
2018-06-11T07:48:45.165Z,9960.00
2018-06-11T07:49:45.187Z,10024.00
2018-06-11T07:50:45.261Z,9956.00
2018-06-11T07:51:45.281Z,10004.00
2018-06-11T07:52:45.257Z,9820.00
2018-06-11T07:53:45.283Z,9056.00
2018-06-11T07:54:45.307Z,8752.00
2018-06-11T07:55:45.333Z,7748.00
2018-06-11T07:56:45.353Z,7812.00
2018-06-11T07:57:45.380Z,8260.00
2018-06-11T07:58:45.406Z,8252.00
2018-06-11T07:59:45.429Z,8456.00
2018-06-11T08:00:45.453Z,6976.00
2018-06-11T08:01:45.476Z,7800.00
2018-06-11T08:02:45.499Z,8376.00
2018-06-11T08:03:45.536Z,8080.00
2018-06-11T08:04:45.553Z,8200.00
2018-06-11T08:05:45.573Z,8400.00
2018-06-11T08:06:45.596Z,8236.00
2018-06-11T08:07:45.624Z,8120.00
2018-06-11T08:08:45.645Z,7988.00
2018-06-11T08:09:45.670Z,8184.00
2018-06-11T08:10:45.696Z,8136.00
2018-06-11T08:11:45.720Z,7812.00
2018-06-11T08:12:45.751Z,7596.00
2018-06-11T08:13:45.772Z,7568.00
2018-06-11T08:14:45.794Z,7724.00
2018-06-11T08:15:45.825Z,7788.00
2018-06-11T08:16:45.848Z,7796.00
2018-06-11T08:17:45.871Z,7564.00
2018-06-11T08:18:49.460Z,7196.00
2018-06-11T08:19:45.921Z,6672.00
2018-06-11T08:20:45.952Z,6612.00
2018-06-11T08:21:45.971Z,4748.00
2018-06-11T08:22:45.998Z,6620.00
2018-06-11T08:23:46.022Z,5928.00
2018-06-11T08:24:46.045Z,5716.00
2018-06-11T08:25:46.071Z,5352.00
2018-06-11T08:26:46.097Z,6796.00
2018-06-11T08:27:46.121Z,6524.00
2018-06-11T08:28:46.145Z,6052.00
2018-06-11T08:29:46.170Z,5868.00
2018-06-11T08:30:46.194Z,6192.00
2018-06-11T08:31:46.219Z,5948.00
2018-06-11T08:32:46.246Z,5632.00
2018-06-11T08:33:46.307Z,5652.00
2018-06-11T08:34:46.294Z,5840.00
2018-06-11T08:35:46.318Z,5412.00
2018-06-11T08:36:46.344Z,5476.00
2018-06-11T08:37:46.367Z,5472.00
2018-06-11T08:38:46.395Z,4716.00
2018-06-11T08:39:46.417Z,5628.00
2018-06-11T08:40:46.444Z,5184.00
2018-06-11T08:41:46.471Z,5348.00
2018-06-11T08:42:46.497Z,6012.00
2018-06-11T08:43:46.517Z,5316.00
2018-06-11T08:44:46.539Z,5524.00
2018-06-11T08:45:46.567Z,5700.00
2018-06-11T08:46:46.590Z,5636.00
2018-06-11T08:47:46.615Z,3608.00
2018-06-11T08:48:46.638Z,4324.00
2018-06-11T08:49:46.668Z,3156.00
2018-06-11T08:50:46.686Z,3300.00
2018-06-11T08:51:46.714Z,3340.00
2018-06-11T08:52:46.741Z,5792.00
2018-06-11T08:53:46.764Z,5528.00
2018-06-11T08:54:46.789Z,5932.00
2018-06-11T08:55:46.815Z,5472.00
2018-06-11T08:56:46.833Z,5508.00
2018-06-11T08:57:46.858Z,5476.00
2018-06-11T08:58:46.886Z,5548.00
2018-06-11T08:59:46.925Z,5652.00
2018-06-11T09:00:46.932Z,5620.00
2018-06-11T09:01:46.957Z,5460.00
2018-06-11T09:02:46.983Z,5524.00
2018-06-11T09:03:47.005Z,5612.00
2018-06-11T09:04:47.032Z,5808.00
2018-06-11T09:05:47.054Z,5736.00
2018-06-11T09:06:47.081Z,4164.00
2018-06-11T09:07:47.105Z,5084.00
2018-06-11T09:08:47.129Z,5600.00
2018-06-11T09:09:47.154Z,4248.00
2018-06-11T09:10:47.178Z,5376.00
2018-06-11T09:11:47.205Z,5620.00
2018-06-11T09:12:47.227Z,5884.00
2018-06-11T09:13:47.249Z,3916.00
2018-06-11T09:14:47.273Z,5896.00
2018-06-11T09:15:47.304Z,5916.00
2018-06-11T09:16:47.324Z,6028.00
2018-06-11T09:17:47.346Z,6128.00
2018-06-11T09:18:47.372Z,6164.00
2018-06-11T09:19:47.398Z,6224.00
2018-06-11T09:20:47.428Z,6400.00
2018-06-11T09:21:47.444Z,6280.00
2018-06-11T09:22:47.469Z,6184.00
2018-06-11T09:23:47.495Z,6388.00
2018-06-11T09:24:47.521Z,5576.00
2018-06-11T09:25:47.546Z,5892.00
2018-06-11T09:26:47.569Z,6260.00
2018-06-11T09:27:47.594Z,6260.00
2018-06-11T09:28:47.617Z,6256.00
2018-06-11T09:29:47.642Z,6140.00
2018-06-11T09:30:47.666Z,6240.00
2018-06-11T09:31:47.693Z,6448.00
2018-06-11T09:32:47.718Z,6496.00
2018-06-11T09:33:47.744Z,6396.00
2018-06-11T09:34:47.767Z,6436.00
2018-06-11T09:35:47.791Z,6676.00
2018-06-11T09:36:47.818Z,6788.00
2018-06-11T09:37:47.842Z,6624.00
2018-06-11T09:38:47.869Z,6840.00
2018-06-11T09:39:47.892Z,6240.00
2018-06-11T09:40:47.917Z,6156.00
2018-06-11T09:41:47.948Z,6152.00
2018-06-11T09:42:47.972Z,5956.00
2018-06-11T09:43:48.038Z,6756.00
2018-06-11T09:44:48.017Z,6932.00
2018-06-11T09:45:48.045Z,6724.00
2018-06-11T09:46:48.069Z,6560.00
2018-06-11T09:47:48.096Z,5980.00
2018-06-11T09:48:48.120Z,6108.00
2018-06-11T09:49:48.144Z,6204.00
2018-06-11T09:50:48.175Z,6564.00
2018-06-11T09:51:48.196Z,7300.00
2018-06-11T09:52:48.219Z,7540.00
2018-06-11T09:53:48.243Z,7640.00
2018-06-11T09:54:48.269Z,7288.00
2018-06-11T09:55:48.423Z,7468.00
2018-06-11T09:56:48.320Z,8768.00
2018-06-11T09:57:48.348Z,9368.00
2018-06-11T09:58:48.370Z,9292.00
2018-06-11T09:59:48.403Z,9572.00
2018-06-11T10:00:48.420Z,9736.00
2018-06-11T10:01:48.447Z,9476.00
2018-06-11T10:02:48.472Z,9672.00
2018-06-11T10:03:48.497Z,10120.00
2018-06-11T10:04:48.522Z,10872.00
2018-06-11T10:05:48.548Z,11024.00
2018-06-11T10:06:48.573Z,10892.00
2018-06-11T10:07:48.599Z,10856.00
2018-06-11T10:08:48.642Z,11012.00
2018-06-11T10:09:48.650Z,10276.00
2018-06-11T10:10:48.689Z,9928.00
2018-06-11T10:11:48.702Z,10020.00
2018-06-11T10:12:48.727Z,10940.00
2018-06-11T10:13:48.753Z,10560.00
2018-06-11T10:14:48.782Z,9484.00
2018-06-11T10:15:48.808Z,7620.00
2018-06-11T10:16:48.833Z,6336.00
2018-06-11T10:17:48.857Z,5776.00
2018-06-11T10:18:48.884Z,5360.00
2018-06-11T10:19:48.910Z,5080.00
2018-06-11T10:20:48.937Z,4604.00
2018-06-11T10:21:48.963Z,4516.00
2018-06-11T10:22:48.988Z,4232.00
2018-06-11T10:23:49.012Z,4284.00
2018-06-11T10:24:49.090Z,4840.00
2018-06-11T10:25:49.064Z,6472.00
2018-06-11T10:26:49.092Z,7156.00
2018-06-11T10:27:49.117Z,7596.00
2018-06-11T10:28:49.145Z,6524.00
2018-06-11T10:29:49.168Z,7092.00
2018-06-11T10:30:49.193Z,7652.00
2018-06-11T10:31:49.220Z,8008.00
2018-06-11T10:32:49.245Z,8304.00
2018-06-11T10:33:49.272Z,7816.00
2018-06-11T10:34:49.295Z,7388.00
2018-06-11T10:35:49.319Z,4908.00
2018-06-11T10:36:49.346Z,6188.00
2018-06-11T10:37:49.372Z,6584.00
2018-06-11T10:38:49.396Z,6516.00
2018-06-11T10:39:49.425Z,6328.00
2018-06-11T10:40:49.451Z,6024.00
2018-06-11T10:41:49.475Z,6336.00
2018-06-11T10:42:49.500Z,5976.00
2018-06-11T10:43:49.525Z,5992.00
2018-06-11T10:44:49.547Z,5924.00
2018-06-11T10:45:49.576Z,6216.00
2018-06-11T10:46:49.599Z,6372.00
2018-06-11T10:47:49.626Z,6260.00
2018-06-11T10:48:49.651Z,6592.00
2018-06-11T10:49:49.678Z,6916.00
2018-06-11T10:50:49.704Z,6668.00
2018-06-11T10:51:49.730Z,7632.00
2018-06-11T10:52:49.752Z,7760.00
2018-06-11T10:53:49.779Z,7464.00
2018-06-11T10:54:49.803Z,6852.00
2018-06-11T10:55:49.838Z,7884.00
2018-06-11T10:56:49.860Z,8208.00
2018-06-11T10:57:49.882Z,7724.00
2018-06-11T10:58:50.009Z,7896.00
2018-06-11T10:59:49.934Z,7332.00
2018-06-11T11:00:49.956Z,6508.00
2018-06-11T11:01:49.981Z,5608.00
2018-06-11T11:02:50.011Z,6168.00
2018-06-11T11:03:50.035Z,6156.00
2018-06-11T11:04:50.059Z,6824.00
2018-06-11T11:05:50.087Z,6964.00
2018-06-11T11:06:50.113Z,6968.00
2018-06-11T11:07:50.138Z,6976.00
2018-06-11T11:08:50.192Z,7052.00
2018-06-11T11:09:50.191Z,7180.00
2018-06-11T11:10:50.214Z,7132.00
2018-06-11T11:11:50.243Z,7304.00
2018-06-11T11:12:50.268Z,7200.00
2018-06-11T11:13:50.292Z,7268.00
2018-06-11T11:14:50.316Z,7232.00
2018-06-11T11:15:50.345Z,7312.00
2018-06-11T11:16:50.367Z,7336.00
2018-06-11T11:17:50.393Z,7308.00
2018-06-11T11:18:50.424Z,7304.00
2018-06-11T11:19:50.445Z,7148.00
2018-06-11T11:20:50.473Z,6888.00
2018-06-11T11:21:50.543Z,6700.00
2018-06-11T11:22:50.523Z,6468.00
2018-06-11T11:23:50.553Z,6200.00
2018-06-11T11:24:50.577Z,6092.00
2018-06-11T11:25:50.603Z,6248.00
2018-06-11T11:26:50.631Z,5640.00
2018-06-11T11:27:50.655Z,5528.00
2018-06-11T11:28:50.677Z,5276.00
2018-06-11T11:29:50.705Z,5384.00
2018-06-11T11:30:50.732Z,5364.00
2018-06-11T11:31:50.758Z,5312.00
2018-06-11T11:32:50.779Z,5316.00
2018-06-11T11:33:50.828Z,5104.00
2018-06-11T11:34:50.830Z,4960.00
2018-06-11T11:35:50.862Z,4696.00
2018-06-11T11:36:50.885Z,4672.00
2018-06-11T11:37:50.909Z,4420.00
2018-06-11T11:38:50.936Z,4564.00
2018-06-11T11:39:50.961Z,4720.00
2018-06-11T11:40:50.988Z,4704.00
2018-06-11T11:41:51.014Z,4680.00
2018-06-11T11:42:51.039Z,4772.00
2018-06-11T11:43:51.065Z,4736.00
2018-06-11T11:44:51.087Z,4780.00
2018-06-11T11:45:51.115Z,4812.00
2018-06-11T11:46:51.139Z,4768.00
2018-06-11T11:47:51.166Z,4596.00
2018-06-11T11:48:51.190Z,4760.00
2018-06-11T11:49:51.217Z,4940.00
2018-06-11T11:50:51.243Z,5084.00
2018-06-11T11:51:51.269Z,5084.00
2018-06-11T11:52:51.593Z,5148.00
2018-06-11T11:53:51.320Z,5216.00
2018-06-11T11:54:51.347Z,5140.00
2018-06-11T11:55:51.372Z,5164.00
2018-06-11T11:56:51.395Z,5092.00
2018-06-11T11:57:51.423Z,5040.00
2018-06-11T11:58:51.449Z,5128.00
2018-06-11T11:59:51.476Z,5120.00
2018-06-11T12:00:51.499Z,5040.00
2018-06-11T12:01:51.525Z,4896.00
2018-06-11T12:02:51.551Z,4964.00
2018-06-11T12:03:51.579Z,4852.00
2018-06-11T12:04:51.604Z,4904.00
2018-06-11T12:05:51.629Z,4956.00
2018-06-11T12:06:51.658Z,5028.00
2018-06-11T12:07:51.680Z,5028.00
2018-06-11T12:08:51.709Z,5056.00
2018-06-11T12:09:51.735Z,5112.00
2018-06-11T12:10:51.760Z,5144.00
2018-06-11T12:11:51.785Z,5160.00
2018-06-11T12:12:51.810Z,5128.00
2018-06-11T12:13:51.889Z,5200.00
2018-06-11T12:14:51.862Z,5216.00
2018-06-11T12:15:51.889Z,5144.00
2018-06-11T12:16:51.913Z,5104.00
2018-06-11T12:17:51.944Z,5000.00
2018-06-11T12:18:51.965Z,4948.00
2018-06-11T12:19:51.992Z,4884.00
2018-06-11T12:20:52.018Z,4872.00
2018-06-11T12:21:52.045Z,4952.00
2018-06-11T12:22:52.072Z,4892.00
2018-06-11T12:23:52.096Z,4860.00